createdAt,value
2023-05-08T04:21:40.619Z,5.78
2023-05-08T04:22:53.848Z,6.00
2023-05-08T04:24:03.804Z,5.95
2023-05-08T04:28:19.280Z,6.03
2023-05-08T04:50:57.622Z,4.15
2023-05-08T04:53:05.448Z,4.03
2023-05-08T04:54:10.961Z,4.00
2023-05-08T04:55:31.302Z,3.88
2023-05-08T04:57:04.363Z,3.92
2023-05-08T04:58:23.105Z,3.90
2023-05-08T04:59:37.282Z,3.90
2023-05-08T05:00:46.949Z,3.72
2023-05-08T05:02:19.860Z,5.32
2023-05-08T05:03:35.051Z,3.80
2023-05-08T05:30:22.583Z,2.30
2023-05-08T05:36:14.858Z,2.05
2023-05-08T05:37:58.185Z,1.98
2023-05-08T05:39:12.632Z,2.20
2023-05-08T05:45:20.525Z,1.95
2023-05-08T05:51:47.034Z,2.20
2023-05-08T05:52:55.232Z,2.10
2023-05-08T06:21:43.767Z,1.92
2023-05-08T06:22:48.439Z,1.80
2023-05-08T06:23:50.535Z,2.03
2023-05-08T06:24:54.286Z,2.15
2023-05-08T06:27:24.437Z,1.70
2023-05-08T06:34:12.969Z,1.88
2023-05-08T06:35:21.033Z,2.20
2023-05-08T06:36:24.452Z,1.30
2023-05-08T06:37:27.133Z,1.40
2023-05-08T06:38:31.438Z,1.40
2023-05-08T06:39:57.489Z,1.40
2023-05-08T06:52:49.300Z,2.00
2023-05-08T06:56:36.884Z,2.03
2023-05-08T07:01:37.045Z,2.22
2023-05-08T07:04:08.499Z,2.20
2023-05-08T07:05:11.144Z,1.90
2023-05-08T07:15:52.295Z,1.90
2023-05-08T07:16:56.547Z,1.52
2023-05-08T07:18:03.181Z,1.55
2023-05-08T07:19:05.883Z,1.50
2023-05-08T07:20:09.425Z,1.55
2023-05-08T07:21:12.514Z,1.65
2023-05-08T07:22:16.817Z,1.60
2023-05-08T07:23:20.384Z,1.50
2023-05-08T07:24:24.086Z,1.70
2023-05-08T07:25:35.616Z,1.70
2023-05-08T07:26:42.515Z,1.83
2023-05-08T07:27:49.585Z,1.70
2023-05-08T07:28:54.631Z,1.52
2023-05-08T07:32:00.605Z,1.70
2023-05-08T07:33:03.246Z,1.50
2023-05-08T07:34:11.679Z,1.58
2023-05-08T07:35:43.698Z,1.70
2023-05-08T07:36:54.085Z,1.40
2023-05-08T07:37:57.601Z,4.90
2023-05-08T07:39:01.168Z,2.70
2023-05-08T07:40:06.489Z,2.10
2023-05-08T07:41:09.450Z,1.70
2023-05-08T07:42:12.272Z,1.77
2023-05-08T07:43:15.234Z,1.80
2023-05-08T07:44:18.039Z,1.50
2023-05-08T07:45:21.088Z,1.52
2023-05-08T07:46:39.010Z,1.55
2023-05-08T07:47:58.684Z,1.60
2023-05-08T07:49:01.188Z,1.80
2023-05-08T07:50:03.741Z,1.70
2023-05-08T07:51:18.802Z,1.73
